Time;durP1;ratioP1;P1;durP2;ratioP2;P2;SDS_P1;SDS_P2;PMS_P1;PMS_P2;Temp;Humidity;BMP_temperature;BMP_pressure;BME280_temperature;BME280_humidity;BME280_pressure;Samples;Min_cycle;Max_cycle;Signal;HPM_P1;HPM_P2
2021/09/10 00:02:20;;;;;;;8.73;8.02;;;20.40;99.90;;;;;;5058141;28;20016;-90
2021/09/10 00:04:49;;;;;;;8.88;8.05;;;20.40;99.90;;;;;;5057559;28;20055;-90
2021/09/10 00:07:15;;;;;;;9.10;8.30;;;20.40;99.90;;;;;;5072814;28;20047;-88
2021/09/10 00:09:40;;;;;;;9.85;8.85;;;20.30;99.90;;;;;;5072649;28;20040;-90
2021/09/10 00:12:06;;;;;;;8.68;7.88;;;20.30;99.90;;;;;;5072897;28;20028;-90
2021/09/10 00:14:32;;;;;;;8.65;7.85;;;20.40;99.90;;;;;;5072514;28;20029;-90
2021/09/10 00:16:57;;;;;;;9.73;8.82;;;20.30;99.90;;;;;;5057411;28;20134;-90
2021/09/10 00:19:23;;;;;;;8.98;8.20;;;20.40;99.90;;;;;;5072656;28;20033;-89
2021/09/10 00:21:49;;;;;;;8.57;7.70;;;20.40;99.90;;;;;;5054377;28;20029;-89
2021/09/10 00:24:14;;;;;;;9.60;8.60;;;20.40;99.90;;;;;;5085572;28;20054;-89
2021/09/10 00:26:40;;;;;;;9.20;8.23;;;20.40;99.90;;;;;;5091230;28;20026;-89
2021/09/10 00:29:06;;;;;;;9.73;8.73;;;20.40;99.90;;;;;;5078607;28;20063;-90
2021/09/10 00:31:31;;;;;;;9.48;8.55;;;20.40;99.90;;;;;;5075531;28;20050;-89
2021/09/10 00:33:57;;;;;;;9.32;8.52;;;20.40;99.90;;;;;;5080586;28;20520;-89
2021/09/10 00:36:22;;;;;;;9.02;8.23;;;20.50;99.90;;;;;;5058312;28;20040;-90
2021/09/10 00:38:48;;;;;;;9.63;8.73;;;20.40;99.90;;;;;;5081248;28;20081;-90
2021/09/10 00:41:14;;;;;;;8.60;7.90;;;20.40;99.90;;;;;;5079629;28;20039;-89
2021/09/10 00:43:39;;;;;;;9.60;8.48;;;20.40;99.90;;;;;;5092902;28;20036;-90
2021/09/10 00:46:05;;;;;;;9.75;8.45;;;20.40;99.90;;;;;;5061644;28;20123;-90
2021/09/10 00:48:31;;;;;;;8.70;7.82;;;20.40;99.90;;;;;;5081550;28;20483;-89
2021/09/10 00:50:57;;;;;;;9.65;8.77;;;20.30;99.90;;;;;;5063289;28;20059;-89
2021/09/10 00:53:23;;;;;;;9.52;8.63;;;20.30;99.90;;;;;;5080093;28;20044;-89
2021/09/10 00:55:48;;;;;;;9.48;8.57;;;20.30;99.90;;;;;;5092135;28;20050;-89
2021/09/10 00:58:15;;;;;;;9.73;8.82;;;20.30;99.90;;;;;;5078102;28;20020;-90
2021/09/10 01:00:40;;;;;;;9.30;8.30;;;20.30;99.90;;;;;;5091236;28;20129;-89
2021/09/10 01:03:07;;;;;;;9.20;8.40;;;20.30;99.90;;;;;;5087319;28;20080;-89
2021/09/10 01:05:33;;;;;;;9.50;8.70;;;20.40;99.90;;;;;;5080909;28;20032;-89
2021/09/10 01:08:00;;;;;;;9.57;8.77;;;20.30;99.90;;;;;;5092546;28;20027;-90
2021/09/10 01:10:27;;;;;;;10.07;9.07;;;20.20;99.90;;;;;;5058940;28;20025;-89
2021/09/10 01:12:54;;;;;;;11.90;9.10;;;20.30;99.90;;;;;;5092068;28;20161;-90
2021/09/10 01:15:21;;;;;;;10.45;9.45;;;20.30;99.90;;;;;;5066628;28;20119;-90
2021/09/10 01:17:47;;;;;;;9.30;8.40;;;20.20;99.90;;;;;;5083096;28;20036;-90
2021/09/10 01:20:13;;;;;;;11.93;8.75;;;20.20;99.90;;;;;;5073090;28;20035;-89
2021/09/10 01:22:39;;;;;;;10.10;9.13;;;20.20;99.90;;;;;;5092002;28;20043;-90
2021/09/10 01:25:05;;;;;;;10.60;9.50;;;20.10;99.90;;;;;;5074296;28;20044;-89
2021/09/10 01:27:31;;;;;;;10.70;9.52;;;20.20;99.90;;;;;;5091243;28;20472;-90
2021/09/10 01:29:58;;;;;;;10.75;9.65;;;20.10;99.90;;;;;;5071033;28;20033;-89
2021/09/10 01:32:24;;;;;;;10.65;9.55;;;20.10;99.90;;;;;;5080421;28;20016;-90
2021/09/10 01:34:50;;;;;;;10.10;9.10;;;20.20;99.90;;;;;;5073818;28;20466;-90
2021/09/10 01:37:16;;;;;;;10.82;9.43;;;20.20;99.90;;;;;;5059366;28;20108;-90
2021/09/10 01:39:41;;;;;;;9.90;9.00;;;20.20;99.90;;;;;;5081363;28;20383;-89
2021/09/10 01:42:07;;;;;;;10.30;9.30;;;20.30;99.90;;;;;;5080462;28;20062;-90
2021/09/10 01:44:33;;;;;;;10.30;9.30;;;20.30;99.90;;;;;;5062106;28;20028;-90
2021/09/10 01:46:59;;;;;;;12.20;9.75;;;20.30;99.90;;;;;;5058508;28;20020;-89
2021/09/10 01:49:25;;;;;;;10.48;9.38;;;20.40;99.90;;;;;;5092160;28;20055;-90
2021/09/10 01:51:50;;;;;;;10.48;9.25;;;20.30;99.90;;;;;;5080039;28;20047;-89
2021/09/10 01:54:16;;;;;;;9.82;8.82;;;20.20;99.90;;;;;;5080772;28;20051;-90
2021/09/10 01:56:41;;;;;;;10.98;9.35;;;20.00;99.90;;;;;;5080005;28;20024;-90
2021/09/10 01:59:07;;;;;;;10.65;9.60;;;20.10;99.90;;;;;;5077603;28;20031;-90
2021/09/10 02:01:34;;;;;;;10.70;9.70;;;20.10;99.90;;;;;;5092208;28;20021;-89
2021/09/10 02:04:01;;;;;;;10.43;9.30;;;20.10;99.90;;;;;;5079864;28;20483;-90
2021/09/10 02:06:26;;;;;;;10.23;9.23;;;20.10;99.90;;;;;;5079420;28;20044;-90
2021/09/10 02:08:52;;;;;;;10.30;9.30;;;20.20;99.90;;;;;;5062999;28;20636;-90
2021/09/10 02:11:18;;;;;;;10.60;9.60;;;20.20;99.90;;;;;;5073160;28;20103;-89
2021/09/10 02:13:43;;;;;;;10.52;9.43;;;20.10;99.90;;;;;;5058051;28;20036;-90
2021/09/10 02:16:11;;;;;;;10.10;9.20;;;20.10;99.90;;;;;;5091980;28;20040;-89
2021/09/10 02:18:38;;;;;;;10.43;9.43;;;20.10;99.90;;;;;;5063907;28;20354;-90
2021/09/10 02:21:03;;;;;;;10.50;9.52;;;20.10;99.90;;;;;;5079516;28;20075;-89
2021/09/10 02:23:29;;;;;;;10.40;9.45;;;20.10;99.90;;;;;;5079665;28;20060;-89
2021/09/10 02:25:55;;;;;;;10.32;9.43;;;20.10;99.90;;;;;;5076483;28;20158;-90
2021/09/10 02:28:25;;;;;;;10.43;9.30;;;20.10;99.90;;;;;;5088042;28;20052;-88
2021/09/10 02:30:52;;;;;;;10.40;9.38;;;20.10;99.90;;;;;;5092036;28;20426;-89
2021/09/10 02:33:18;;;;;;;10.52;9.52;;;20.10;99.90;;;;;;5060167;28;20044;-89
2021/09/10 02:35:43;;;;;;;10.13;9.15;;;20.10;99.90;;;;;;5081711;28;20025;-89
2021/09/10 02:38:09;;;;;;;9.90;9.05;;;20.10;99.90;;;;;;5093955;28;20031;-89
2021/09/10 02:40:35;;;;;;;10.02;9.05;;;20.00;99.90;;;;;;5095054;28;20078;-89
2021/09/10 02:43:01;;;;;;;10.07;9.18;;;20.10;99.90;;;;;;5077377;28;20034;-90
2021/09/10 02:45:27;;;;;;;9.40;8.60;;;20.10;99.90;;;;;;5086754;28;20135;-89
2021/09/10 02:47:53;;;;;;;9.77;8.85;;;20.10;99.90;;;;;;5088334;28;20047;-90
2021/09/10 02:50:18;;;;;;;9.68;8.88;;;20.10;99.90;;;;;;5074933;28;20028;-89
2021/09/10 02:52:44;;;;;;;10.35;9.45;;;20.10;99.90;;;;;;5079261;28;20119;-89
2021/09/10 02:55:10;;;;;;;10.00;9.10;;;20.10;99.90;;;;;;5095943;28;20038;-89
2021/09/10 02:57:36;;;;;;;10.48;9.32;;;20.20;99.90;;;;;;5094885;28;20081;-89
2021/09/10 03:00:03;;;;;;;9.98;9.05;;;20.10;99.90;;;;;;5089656;28;20025;-90
2021/09/10 03:02:29;;;;;;;10.65;9.65;;;20.00;99.90;;;;;;5065205;28;20021;-89
2021/09/10 03:04:55;;;;;;;11.27;10.18;;;20.00;99.90;;;;;;5094740;28;20040;-89
2021/09/10 03:07:20;;;;;;;10.68;9.52;;;20.00;99.90;;;;;;5090773;28;20078;-89
2021/09/10 03:09:46;;;;;;;10.93;10.02;;;20.00;99.90;;;;;;5083413;28;20037;-89
2021/09/10 03:12:12;;;;;;;10.45;9.55;;;20.00;99.90;;;;;;5089540;28;20110;-89
2021/09/10 03:14:37;;;;;;;10.98;10.07;;;20.00;99.90;;;;;;5092979;28;20024;-89
2021/09/10 03:17:03;;;;;;;11.77;10.43;;;20.00;99.90;;;;;;5079699;28;20026;-90
2021/09/10 03:19:29;;;;;;;11.05;10.05;;;20.00;99.90;;;;;;5094181;28;20024;-89
2021/09/10 03:21:55;;;;;;;11.23;10.23;;;19.90;99.90;;;;;;5076517;28;20127;-90
2021/09/10 03:24:21;;;;;;;12.05;10.93;;;19.90;99.90;;;;;;5086569;28;20040;-89
2021/09/10 03:26:47;;;;;;;12.18;10.20;;;19.90;99.90;;;;;;5082613;28;20031;-89
2021/09/10 03:29:13;;;;;;;12.52;10.13;;;19.90;99.90;;;;;;5080537;28;20549;-89
2021/09/10 03:31:40;;;;;;;11.52;10.32;;;19.90;99.90;;;;;;5077905;28;20033;-89
2021/09/10 03:34:06;;;;;;;11.10;9.75;;;19.90;99.90;;;;;;5078340;28;20029;-89
2021/09/10 03:36:32;;;;;;;11.48;10.38;;;19.90;99.90;;;;;;5091841;28;20028;-89
2021/09/10 03:38:57;;;;;;;11.13;10.15;;;19.80;99.90;;;;;;5071323;28;20024;-89
2021/09/10 03:41:23;;;;;;;11.52;10.48;;;19.90;99.90;;;;;;5063104;28;20058;-89
2021/09/10 03:43:54;;;;;;;11.43;10.30;;;19.90;99.90;;;;;;5093762;28;20039;-88
2021/09/10 03:46:20;;;;;;;11.15;10.15;;;19.90;99.90;;;;;;5094763;28;20032;-89
2021/09/10 03:48:47;;;;;;;12.57;10.45;;;19.90;99.90;;;;;;5063690;28;20419;-89
2021/09/10 03:51:12;;;;;;;11.73;10.63;;;19.90;99.90;;;;;;5064114;28;20060;-89
2021/09/10 03:53:38;;;;;;;11.95;9.65;;;19.90;99.90;;;;;;5082120;28;20058;-89
2021/09/10 03:56:04;;;;;;;11.55;10.50;;;19.90;99.90;;;;;;5061212;28;20028;-89
2021/09/10 03:58:30;;;;;;;11.10;10.00;;;19.90;99.90;;;;;;5094174;28;20028;-89
2021/09/10 04:00:56;;;;;;;11.25;10.15;;;19.90;99.90;;;;;;5082070;28;20020;-89
2021/09/10 04:03:21;;;;;;;11.52;10.25;;;19.90;99.90;;;;;;5068081;28;20043;-89
2021/09/10 04:05:47;;;;;;;11.55;10.55;;;19.90;99.90;;;;;;5090657;28;20044;-89
2021/09/10 04:08:13;;;;;;;11.60;10.50;;;19.90;99.90;;;;;;5061842;28;20032;-89
2021/09/10 04:10:39;;;;;;;11.02;10.07;;;19.90;99.90;;;;;;5077005;28;20595;-89
2021/09/10 04:13:05;;;;;;;11.38;10.27;;;19.80;99.90;;;;;;5078360;28;20020;-90
2021/09/10 04:15:30;;;;;;;11.18;10.10;;;19.90;99.90;;;;;;5090933;28;20042;-89
2021/09/10 04:17:56;;;;;;;11.20;10.05;;;19.90;99.90;;;;;;5088596;28;20391;-89
2021/09/10 04:20:22;;;;;;;11.70;10.55;;;19.90;99.90;;;;;;5082053;28;20388;-90
2021/09/10 04:22:47;;;;;;;11.70;10.52;;;19.90;99.90;;;;;;5058798;28;20044;-90
2021/09/10 04:25:13;;;;;;;11.82;10.77;;;19.90;99.90;;;;;;5078864;28;20047;-90
2021/09/10 04:27:39;;;;;;;13.02;10.93;;;19.80;99.90;;;;;;5082005;28;20078;-89
2021/09/10 04:30:06;;;;;;;12.35;10.93;;;19.80;99.90;;;;;;5081363;28;20056;-89
2021/09/10 04:32:32;;;;;;;11.75;10.65;;;19.80;99.90;;;;;;5081363;28;20028;-89
2021/09/10 04:34:58;;;;;;;11.30;10.13;;;19.70;99.90;;;;;;5077695;28;20024;-90
2021/09/10 04:37:24;;;;;;;11.73;10.73;;;19.70;99.90;;;;;;5093442;28;20060;-90
2021/09/10 04:39:49;;;;;;;11.90;10.60;;;19.80;99.90;;;;;;5081303;28;20025;-90
2021/09/10 04:42:15;;;;;;;11.20;10.10;;;19.70;99.90;;;;;;5087541;28;20046;-90
2021/09/10 04:44:41;;;;;;;12.15;10.93;;;19.70;99.90;;;;;;5071521;28;20403;-90
2021/09/10 04:47:07;;;;;;;11.63;10.43;;;19.80;99.90;;;;;;5073143;28;20039;-89
2021/09/10 04:49:32;;;;;;;12.25;10.95;;;19.80;99.90;;;;;;5076373;28;20080;-90
2021/09/10 04:51:58;;;;;;;11.60;10.57;;;19.80;99.90;;;;;;5093206;28;20536;-90
2021/09/10 04:54:27;;;;;;;11.70;10.52;;;19.80;99.90;;;;;;5084122;28;20036;-89
2021/09/10 04:56:53;;;;;;;12.38;11.15;;;19.80;99.90;;;;;;5084994;28;20169;-90
2021/09/10 04:59:19;;;;;;;13.10;10.93;;;19.80;99.90;;;;;;5074928;28;20137;-89
2021/09/10 05:01:44;;;;;;;11.43;10.32;;;19.80;99.90;;;;;;5074893;28;20052;-89
2021/09/10 05:04:10;;;;;;;11.10;10.10;;;19.80;99.90;;;;;;5093256;28;20040;-89
2021/09/10 05:06:37;;;;;;;11.88;10.50;;;19.80;99.90;;;;;;5073687;28;20480;-90
2021/09/10 05:09:03;;;;;;;11.23;10.13;;;19.80;99.90;;;;;;5092443;28;20507;-89
2021/09/10 05:11:29;;;;;;;12.98;10.60;;;19.80;99.90;;;;;;5068594;28;20074;-90
2021/09/10 05:13:54;;;;;;;11.95;10.75;;;19.80;99.90;;;;;;5091836;28;20028;-89
2021/09/10 05:16:20;;;;;;;12.60;10.93;;;19.70;99.90;;;;;;5092781;28;20098;-89
2021/09/10 05:18:46;;;;;;;12.35;10.73;;;19.80;99.90;;;;;;5063085;28;20028;-89
2021/09/10 05:21:11;;;;;;;11.63;10.48;;;19.70;99.90;;;;;;5080385;28;20427;-89
2021/09/10 05:23:37;;;;;;;11.77;10.68;;;19.80;99.90;;;;;;5081693;28;20048;-90
2021/09/10 05:26:03;;;;;;;11.57;10.48;;;19.80;99.90;;;;;;5073872;28;20031;-89
2021/09/10 05:28:28;;;;;;;11.38;10.38;;;19.90;99.90;;;;;;5075793;28;20027;-90
2021/09/10 05:30:54;;;;;;;12.57;10.85;;;19.90;99.90;;;;;;5080530;28;20518;-89
2021/09/10 05:33:19;;;;;;;14.18;10.90;;;19.90;99.90;;;;;;5079950;28;20033;-90
2021/09/10 05:35:45;;;;;;;11.68;10.48;;;19.90;99.90;;;;;;5080596;28;20024;-90
2021/09/10 05:38:11;;;;;;;10.93;9.85;;;20.00;99.90;;;;;;5059868;28;20513;-89
2021/09/10 05:40:37;;;;;;;10.52;9.57;;;20.10;99.90;;;;;;5076129;28;20024;-90
2021/09/10 05:43:02;;;;;;;11.00;9.90;;;20.10;99.90;;;;;;5079045;28;20074;-90
2021/09/10 05:45:28;;;;;;;10.85;9.75;;;20.00;99.90;;;;;;5079918;28;20048;-90
2021/09/10 05:47:54;;;;;;;11.75;10.65;;;20.00;99.90;;;;;;5062585;28;20020;-89
2021/09/10 05:50:19;;;;;;;13.25;11.18;;;20.00;99.90;;;;;;5059437;28;20028;-89
2021/09/10 05:52:45;;;;;;;12.07;10.82;;;20.00;99.90;;;;;;5075277;28;20025;-89
2021/09/10 05:55:11;;;;;;;12.07;10.88;;;19.90;99.90;;;;;;5077865;28;20048;-90
2021/09/10 05:57:37;;;;;;;12.75;11.55;;;19.80;99.90;;;;;;5080705;28;20029;-89
2021/09/10 06:00:04;;;;;;;12.02;10.93;;;19.70;99.90;;;;;;5062281;28;20127;-89
2021/09/10 06:02:30;;;;;;;12.75;11.52;;;19.70;99.90;;;;;;5080408;28;20055;-89
2021/09/10 06:04:55;;;;;;;15.93;12.20;;;19.70;99.90;;;;;;5091382;28;20064;-89
2021/09/10 06:07:21;;;;;;;14.07;11.60;;;19.70;99.90;;;;;;5092324;28;20016;-89
2021/09/10 06:09:46;;;;;;;13.25;11.85;;;19.70;99.90;;;;;;5080367;28;20082;-89
2021/09/10 06:12:12;;;;;;;14.13;12.63;;;19.70;99.90;;;;;;5080653;28;20078;-89
2021/09/10 06:14:38;;;;;;;13.27;11.98;;;19.70;99.90;;;;;;5085400;28;20034;-89
2021/09/10 06:17:04;;;;;;;12.60;10.95;;;19.70;99.90;;;;;;5096266;28;20082;-89
2021/09/10 06:19:29;;;;;;;13.20;11.90;;;19.70;99.90;;;;;;5078803;28;20610;-89
2021/09/10 06:21:55;;;;;;;12.82;11.63;;;19.70;99.90;;;;;;5083545;28;20108;-89
2021/09/10 06:24:21;;;;;;;12.48;11.38;;;19.70;99.90;;;;;;5065055;28;20144;-89
2021/09/10 06:26:47;;;;;;;12.93;11.68;;;19.70;99.90;;;;;;5065268;28;20118;-89
2021/09/10 06:29:12;;;;;;;12.75;11.60;;;19.60;99.90;;;;;;5082231;28;20051;-89
2021/09/10 06:31:42;;;;;;;12.43;11.25;;;19.50;99.90;;;;;;5061210;28;20075;-89
2021/09/10 06:34:08;;;;;;;12.73;11.00;;;19.50;99.90;;;;;;5079870;28;20486;-89
2021/09/10 06:36:34;;;;;;;12.02;10.90;;;19.60;99.90;;;;;;5083682;28;20028;-88
2021/09/10 06:38:59;;;;;;;11.30;10.20;;;19.70;99.90;;;;;;5083996;28;20020;-89
2021/09/10 06:41:25;;;;;;;11.85;10.73;;;19.70;99.90;;;;;;5083209;28;20035;-89
2021/09/10 06:43:51;;;;;;;11.50;10.32;;;19.70;99.90;;;;;;5094416;28;20084;-89
2021/09/10 06:46:16;;;;;;;11.73;10.52;;;19.70;99.90;;;;;;5095917;28;20028;-89
2021/09/10 06:48:42;;;;;;;12.45;11.00;;;19.80;99.90;;;;;;5065902;28;20499;-89
2021/09/10 06:51:08;;;;;;;10.93;9.82;;;19.70;99.90;;;;;;5083471;28;20162;-89
2021/09/10 06:53:35;;;;;;;12.25;10.40;;;19.80;99.90;;;;;;5065127;28;20024;-89
2021/09/10 06:56:01;;;;;;;10.68;9.77;;;19.70;99.90;;;;;;5079481;28;20110;-88
2021/09/10 06:58:27;;;;;;;12.07;10.90;;;19.80;99.90;;;;;;5094903;28;20024;-89
2021/09/10 07:00:53;;;;;;;11.65;10.27;;;19.70;99.90;;;;;;5064962;28;20039;-89
2021/09/10 07:03:18;;;;;;;11.35;10.25;;;19.70;99.90;;;;;;5082864;28;20044;-88
2021/09/10 07:05:44;;;;;;;11.90;10.80;;;19.70;99.90;;;;;;5083103;28;20106;-89
2021/09/10 07:08:10;;;;;;;10.82;9.70;;;19.70;99.90;;;;;;5080722;28;20032;-89
2021/09/10 07:10:35;;;;;;;10.45;9.45;;;19.70;99.90;;;;;;5078241;28;20029;-89
2021/09/10 07:13:01;;;;;;;10.80;9.70;;;19.70;99.90;;;;;;5063775;28;20028;-89
2021/09/10 07:15:27;;;;;;;11.52;10.35;;;19.70;99.90;;;;;;5082587;28;20037;-89
2021/09/10 07:17:53;;;;;;;12.23;10.38;;;19.50;99.90;;;;;;5082254;28;20031;-89
2021/09/10 07:20:19;;;;;;;13.63;10.55;;;19.50;99.90;;;;;;5081373;28;20251;-88
2021/09/10 07:22:44;;;;;;;11.38;10.38;;;19.50;99.90;;;;;;5060542;28;20056;-88
2021/09/10 07:25:11;;;;;;;12.13;11.02;;;19.60;99.90;;;;;;5093353;28;20078;-89
2021/09/10 07:27:36;;;;;;;12.02;10.80;;;19.70;99.90;;;;;;5075839;28;20024;-89
2021/09/10 07:30:03;;;;;;;12.38;11.27;;;19.70;99.90;;;;;;5089061;28;20032;-89
2021/09/10 07:32:29;;;;;;;11.80;10.75;;;19.70;99.90;;;;;;5082790;28;20024;-89
2021/09/10 07:34:54;;;;;;;11.45;10.25;;;19.70;99.90;;;;;;5059422;28;20076;-89
2021/09/10 07:37:27;;;;;;;12.52;11.32;;;19.80;99.90;;;;;;5094507;28;20434;-89
2021/09/10 07:39:53;;;;;;;11.90;10.80;;;19.70;99.90;;;;;;5093413;28;20035;-89
2021/09/10 07:42:19;;;;;;;12.15;10.98;;;19.80;99.90;;;;;;5086816;28;20037;-89
2021/09/10 07:44:45;;;;;;;11.82;10.68;;;19.90;99.90;;;;;;5084590;28;20040;-89
2021/09/10 07:47:11;;;;;;;12.32;11.13;;;20.00;99.90;;;;;;5095937;28;20605;-89
2021/09/10 07:49:37;;;;;;;12.20;11.10;;;20.00;99.90;;;;;;5059868;28;20464;-89
2021/09/10 07:52:04;;;;;;;13.52;11.82;;;20.10;99.90;;;;;;5094398;28;20476;-89
2021/09/10 07:54:29;;;;;;;12.43;11.15;;;20.20;99.90;;;;;;5066727;28;20037;-89
2021/09/10 07:56:55;;;;;;;11.95;10.82;;;20.20;99.90;;;;;;5081811;28;20115;-89
2021/09/10 07:59:21;;;;;;;12.18;11.02;;;20.20;99.90;;;;;;5081156;28;20020;-89
2021/09/10 08:01:46;;;;;;;12.50;11.30;;;20.30;99.90;;;;;;5093409;28;20111;-89
2021/09/10 08:04:12;;;;;;;12.13;11.02;;;20.20;99.90;;;;;;5062453;28;20094;-89
2021/09/10 08:06:37;;;;;;;11.63;10.50;;;20.10;99.90;;;;;;5081984;28;20070;-90
2021/09/10 08:09:04;;;;;;;11.30;10.18;;;20.10;99.90;;;;;;5063573;28;20037;-89
2021/09/10 08:11:30;;;;;;;11.18;10.23;;;20.10;99.90;;;;;;5082100;28;20017;-89
2021/09/10 08:13:57;;;;;;;11.52;10.32;;;20.20;99.90;;;;;;5077325;28;20053;-89
2021/09/10 08:16:23;;;;;;;11.52;10.32;;;20.20;99.90;;;;;;5071789;28;20016;-90
2021/09/10 08:18:49;;;;;;;12.05;10.85;;;20.20;99.90;;;;;;5063754;28;20059;-89
2021/09/10 08:21:15;;;;;;;11.18;10.18;;;20.20;99.90;;;;;;5081933;28;20029;-89
2021/09/10 08:23:40;;;;;;;11.93;10.75;;;20.20;99.90;;;;;;5064769;28;20044;-89
2021/09/10 08:26:06;;;;;;;12.02;10.90;;;20.20;99.90;;;;;;5093361;28;20039;-89
2021/09/10 08:28:32;;;;;;;12.85;11.05;;;20.00;99.90;;;;;;5093107;28;20024;-88
2021/09/10 08:30:57;;;;;;;12.93;11.23;;;19.90;99.90;;;;;;5080576;28;20024;-88
2021/09/10 08:33:24;;;;;;;11.50;10.30;;;20.10;99.90;;;;;;5081473;28;20031;-89
2021/09/10 08:35:49;;;;;;;11.43;10.32;;;19.80;99.90;;;;;;5062858;28;20028;-89
2021/09/10 08:38:15;;;;;;;11.73;10.63;;;19.70;99.90;;;;;;5092289;28;20469;-88
2021/09/10 08:40:44;;;;;;;12.07;10.90;;;19.80;99.90;;;;;;5092715;28;20055;-88
2021/09/10 08:43:10;;;;;;;11.25;10.15;;;19.80;99.90;;;;;;5061128;28;20054;-88
2021/09/10 08:45:36;;;;;;;14.07;11.10;;;19.80;99.90;;;;;;5080908;28;20554;-88
2021/09/10 08:48:02;;;;;;;14.98;12.02;;;19.80;99.90;;;;;;5080583;28;20036;-88
2021/09/10 08:50:27;;;;;;;12.80;11.48;;;19.90;99.90;;;;;;5080383;28;20038;-88
2021/09/10 08:52:53;;;;;;;16.02;12.68;;;19.90;99.90;;;;;;5075469;28;20039;-88
2021/09/10 08:55:19;;;;;;;15.40;12.30;;;19.90;99.90;;;;;;5077511;28;20048;-88
2021/09/10 08:57:52;;;;;;;14.27;12.73;;;19.90;99.90;;;;;;5072273;28;20047;-88
2021/09/10 09:00:25;;;;;;;14.73;13.32;;;20.00;99.90;;;;;;5068305;28;20032;-88
2021/09/10 09:03:06;;;;;;;14.60;13.10;;;20.00;99.90;;;;;;5080738;28;20483;-88
2021/09/10 09:05:33;;;;;;;13.73;12.38;;;20.10;99.90;;;;;;5080455;28;20032;-88
2021/09/10 09:08:17;;;;;;;14.32;12.85;;;20.10;99.90;;;;;;5076258;28;20023;-88
2021/09/10 09:11:05;;;;;;;14.65;12.75;;;20.20;99.90;;;;;;5057594;28;20115;-88
2021/09/10 09:13:44;;;;;;;15.02;12.23;;;20.40;99.90;;;;;;5088349;28;20013;-87
2021/09/10 09:16:19;;;;;;;18.08;13.02;;;20.60;99.90;;;;;;5077936;28;20510;-88
2021/09/10 09:18:52;;;;;;;14.23;11.93;;;20.90;99.90;;;;;;5090897;28;20023;-88
2021/09/10 09:21:57;;;;;;;17.00;13.43;;;21.10;99.90;;;;;;5084384;28;20515;-88
2021/09/10 09:24:23;;;;;;;13.75;11.55;;;21.50;99.90;;;;;;5005285;28;20062;-88
2021/09/10 09:26:51;;;;;;;13.77;12.43;;;21.70;99.90;;;;;;5009232;28;20444;-88
2021/09/10 09:29:21;;;;;;;14.45;12.40;;;21.90;99.90;;;;;;5010892;28;20034;-89
2021/09/10 09:31:58;;;;;;;12.80;11.45;;;22.10;99.90;;;;;;4992440;28;20095;-88
2021/09/10 09:34:44;;;;;;;12.77;11.63;;;22.50;99.90;;;;;;4994999;28;20022;-89
2021/09/10 09:37:10;;;;;;;12.38;11.23;;;23.00;99.90;;;;;;5008492;28;20030;-89
2021/09/10 09:39:53;;;;;;;13.10;11.43;;;23.40;99.90;;;;;;5010260;28;20092;-90
2021/09/10 09:42:27;;;;;;;11.98;10.88;;;24.20;99.90;;;;;;4992856;28;20033;-89
2021/09/10 09:45:15;;;;;;;11.25;10.25;;;24.30;99.90;;;;;;5009324;28;20057;-89
2021/09/10 09:47:43;;;;;;;12.75;11.55;;;24.30;99.90;;;;;;5008993;28;20041;-89
2021/09/10 09:50:11;;;;;;;12.35;11.25;;;24.20;99.90;;;;;;5009321;28;20136;-89
2021/09/10 09:52:37;;;;;;;11.73;10.60;;;24.50;99.90;;;;;;4992975;28;20030;-89
2021/09/10 09:55:05;;;;;;;12.38;11.15;;;23.90;99.90;;;;;;5010474;28;20478;-89
2021/09/10 09:57:31;;;;;;;11.32;10.32;;;23.30;99.90;;;;;;5004262;28;20485;-89
2021/09/10 09:59:57;;;;;;;12.45;11.27;;;23.00;99.90;;;;;;5083731;28;20020;-89
2021/09/10 10:02:23;;;;;;;13.38;12.10;;;22.80;99.90;;;;;;5091581;28;20020;-89
2021/09/10 10:04:49;;;;;;;13.75;12.45;;;22.50;99.90;;;;;;5074877;28;20055;-90
2021/09/10 10:07:18;;;;;;;12.82;11.57;;;22.40;99.90;;;;;;5077840;28;20426;-89
2021/09/10 10:09:48;;;;;;;11.10;10.02;;;22.30;99.90;;;;;;5080297;28;20032;-90
2021/09/10 10:12:19;;;;;;;12.35;11.13;;;22.40;99.90;;;;;;5079331;28;20033;-90
2021/09/10 10:14:45;;;;;;;13.32;12.02;;;22.50;99.90;;;;;;5079983;28;20024;-90
2021/09/10 10:17:29;;;;;;;11.60;10.60;;;22.60;99.90;;;;;;5077433;28;20078;-89
2021/09/10 10:19:55;;;;;;;11.60;10.50;;;22.70;99.90;;;;;;5075454;28;20053;-89
2021/09/10 10:22:41;;;;;;;11.52;10.52;;;22.90;99.90;;;;;;5091241;28;20059;-90
2021/09/10 10:25:09;;;;;;;10.90;9.98;;;23.20;99.90;;;;;;5058914;28;20496;-89
2021/09/10 10:27:38;;;;;;;12.00;10.75;;;23.60;99.90;;;;;;5079779;28;20032;-89
2021/09/10 10:30:15;;;;;;;12.05;10.85;;;23.80;99.90;;;;;;5079642;28;20050;-89
2021/09/10 10:32:47;;;;;;;10.70;9.70;;;23.80;99.90;;;;;;5077953;28;20020;-90
2021/09/10 10:35:24;;;;;;;12.05;10.85;;;23.60;99.90;;;;;;5077588;28;20024;-89
2021/09/10 10:38:02;;;;;;;11.50;10.50;;;23.20;99.90;;;;;;5075065;28;20040;-89
2021/09/10 10:40:47;;;;;;;12.52;11.32;;;22.90;99.90;;;;;;5092206;28;20024;-90
2021/09/10 10:43:22;;;;;;;14.10;11.75;;;22.80;99.90;;;;;;5076499;28;20021;-90
2021/09/10 10:45:47;;;;;;;12.90;11.80;;;23.00;99.90;;;;;;5090875;28;20036;-90
2021/09/10 10:48:44;;;;;;;11.75;10.75;;;22.90;99.90;;;;;;5091557;28;20127;-90
2021/09/10 10:51:21;;;;;;;11.77;10.68;;;23.30;99.90;;;;;;5091293;28;20039;-90
2021/09/10 10:53:47;;;;;;;10.82;9.73;;;23.60;99.90;;;;;;5090941;28;20115;-90
2021/09/10 10:56:24;;;;;;;12.02;9.48;;;23.40;99.90;;;;;;5091218;28;20112;-90
2021/09/10 10:59:11;;;;;;;10.95;9.93;;;23.10;99.90;;;;;;5091973;28;20051;-90
2021/09/10 11:02:31;;;;;;;10.93;9.80;;;23.20;99.90;;;;;;5092044;28;20024;-90
2021/09/10 11:05:08;;;;;;;9.45;8.50;;;23.60;99.90;;;;;;4997163;28;20045;-90
2021/09/10 11:07:34;;;;;;;10.73;9.70;;;23.90;99.90;;;;;;5010039;28;20433;-90
2021/09/10 11:10:05;;;;;;;10.40;9.43;;;23.80;99.90;;;;;;5013327;28;20034;-91
2021/09/10 11:12:36;;;;;;;9.10;8.20;;;24.00;99.90;;;;;;5008667;28;20045;-90
2021/09/10 11:15:32;;;;;;;11.18;9.23;;;23.90;99.90;;;;;;5007901;28;20038;-90
2021/09/10 11:18:02;;;;;;;9.35;8.55;;;23.80;99.90;;;;;;5001213;28;20022;-90
2021/09/10 11:20:34;;;;;;;9.90;8.90;;;23.90;99.90;;;;;;5008154;28;20042;-90
2021/09/10 11:23:02;;;;;;;9.27;8.48;;;24.10;99.90;;;;;;4997109;28;20101;-90
2021/09/10 11:25:28;;;;;;;8.88;7.97;;;24.10;99.90;;;;;;5012784;28;20046;-89
2021/09/10 11:27:53;;;;;;;9.77;8.98;;;24.20;99.90;;;;;;5008304;28;20517;-90
2021/09/10 11:30:19;;;;;;;10.18;9.27;;;24.00;99.90;;;;;;5007591;28;20193;-89
2021/09/10 11:32:45;;;;;;;10.13;9.13;;;24.00;99.90;;;;;;5007171;28;20438;-90
2021/09/10 11:35:21;;;;;;;10.27;9.20;;;24.30;99.90;;;;;;5011042;28;20042;-90
2021/09/10 11:38:21;;;;;;;9.90;8.77;;;24.40;99.90;;;;;;5010989;28;20626;-90
2021/09/10 11:40:58;;;;;;;8.75;8.05;;;25.10;99.90;;;;;;5044983;28;20044;-89
2021/09/10 11:43:31;;;;;;;8.45;7.75;;;25.40;99.90;;;;;;5090637;28;20046;-90
2021/09/10 11:46:03;;;;;;;8.73;7.85;;;25.80;99.90;;;;;;5081472;28;20036;-90
2021/09/10 11:48:31;;;;;;;9.38;8.50;;;26.20;99.90;;;;;;5082390;28;20025;-90
2021/09/10 11:51:34;;;;;;;8.93;8.05;;;26.40;99.90;;;;;;5085596;28;20031;-90
2021/09/10 11:54:00;;;;;;;8.38;7.65;;;26.90;99.90;;;;;;5076172;28;20107;-93
2021/09/10 11:56:33;;;;;;;9.60;8.10;;;27.30;99.90;;;;;;5094424;28;20098;-91
2021/09/10 11:58:59;;;;;;;8.30;7.60;;;27.00;99.90;;;;;;5078535;28;20028;-92
2021/09/10 12:01:34;;;;;;;8.48;7.68;;;27.30;99.90;;;;;;5094493;28;20435;-92
2021/09/10 12:04:11;;;;;;;7.70;7.07;;;28.20;99.90;;;;;;5093337;28;20024;-92
2021/09/10 12:06:37;;;;;;;8.18;7.47;;;28.60;99.90;;;;;;5066372;28;20040;-92
2021/09/10 12:09:13;;;;;;;8.82;8.02;;;29.20;99.90;;;;;;5087401;28;20056;-92
2021/09/10 12:12:08;;;;;;;8.55;7.78;;;29.20;99.90;;;;;;5092351;28;20024;-91
2021/09/10 12:14:52;;;;;;;8.13;7.38;;;29.10;99.90;;;;;;5082436;28;20031;-92
2021/09/10 12:17:24;;;;;;;8.70;8.00;;;29.20;99.90;;;;;;5080418;28;20032;-92
2021/09/10 12:19:54;;;;;;;8.70;8.00;;;29.20;99.90;;;;;;5078169;28;20024;-92
2021/09/10 12:22:37;;;;;;;8.57;7.70;;;29.00;99.90;;;;;;5078858;28;20108;-93
2021/09/10 12:25:22;;;;;;;8.70;7.90;;;29.60;99.90;;;;;;5069377;28;20090;-92
2021/09/10 12:27:57;;;;;;;8.60;7.80;;;29.40;99.90;;;;;;5093364;28;20373;-92
2021/09/10 12:30:26;;;;;;;8.75;7.85;;;29.70;99.90;;;;;;5085951;28;20399;-92
2021/09/10 12:32:53;;;;;;;8.30;7.55;;;29.40;99.90;;;;;;5084983;28;20020;-91
2021/09/10 12:35:19;;;;;;;8.50;7.47;;;30.00;99.90;;;;;;5093680;28;20078;-92
2021/09/10 12:37:57;;;;;;;8.02;7.28;;;29.70;99.90;;;;;;5093682;28;20583;-92
2021/09/10 12:40:24;;;;;;;8.20;7.50;;;29.20;99.90;;;;;;5075829;28;20422;-92